Latest Coastal Weather Observations for Cape Flattery

IDQ60701

Issued at 11:51 am EST Friday 29 April 2016 (issued every 10 minutes, with the page automatically refreshed every 10 minutes)

About coastal observations | Map of coastal stations | Coastal observations for QLD | Marine services | Other Formats
Station Details ID: 031213 Name: CAPE FLATTERY Lat: -14.97 Lon: 145.31 Height: 18.5 m
Data from the previous 72 hours. | See also: Recent months at Cape Flattery
Date/Time
EST
Temp

°C
Wind Pressure Rain
since 9am
mm
Weather Cloud Vis
km
Sea
Height
m
Swell
Dir
 
Speed
knots
Gust
knots
hPa Trend Height
m
Period
s
Dir
29/11:30am 29.8 SE 13 19 1013.9 - 0.0 - - - - - - -
29/11:00am 29.1 SE 16 21 1014.4 - 0.0 - - - - - - -
29/10:30am 29.0 SE 17 23 1014.6 - 0.0 - - - - - - -
29/10:00am 28.6 SE 15 20 1014.7 - 0.0 - - - - - - -
29/09:30am 28.3 SE 17 21 1014.7 - 0.0 - - - - - - -
29/09:00am 27.9 SE 15 23 1014.4 - 6.0 - - - - - - -
29/08:30am 27.2 SE 14 19 1014.2 - 6.0 - - - - - - -
29/08:00am 26.3 SE 14 19 1014.0 - 6.0 - - - - - - -
29/07:30am 26.2 SE 14 19 1013.8 - 6.0 - - - - - - -
29/07:00am 26.3 SE 15 21 1013.3 - 5.6 - - - - - - -
29/06:30am 26.1 SE 16 22 1013.0 - 5.6 - - - - - - -
29/06:00am 26.0 SE 15 20 1012.6 - 5.6 - - - - - - -
29/05:30am 26.1 SE 15 20 1012.2 - 5.6 - - - - - - -
29/05:00am 26.0 SE 13 19 1012.0 - 5.6 - - - - - - -
29/04:30am 26.0 SE 15 21 1011.9 - 5.6 - - - - - - -
29/04:00am 25.9 SE 15 21 1011.9 - 5.6 - - - - - - -
29/03:30am 25.7 SE 16 22 1012.0 - 5.6 - - - - - - -
29/03:00am 25.6 SE 14 20 1012.0 - 5.2 - - - - - - -
29/02:30am 25.2 SE 14 19 1012.3 - 5.2 - - - - - - -
29/02:00am 25.5 SE 13 18 1012.4 - 5.2 - - - - - - -
29/01:30am 25.7 SE 13 18 1012.7 - 5.0 - - - - - - -
29/01:00am 25.6 SE 15 20 1013.0 - 5.0 - - - - - - -
29/12:30am 25.9 SSE 15 19 1013.3 - 4.8 - - - - - - -
29/12:00am 25.6 SSE 13 17 1013.6 - 4.8 - - - - - - -
 
Date/Time
EST
Temp

°C
Wind Pressure Rain
since 9am
mm
Weather Cloud Vis
km
Sea
Height
m
Swell
Dir
 
Speed
knots
Gust
knots
hPa Trend Height
m
Period
s
Dir
28/11:30pm 25.2 SSE 13 18 1013.9 - 4.8 - - - - - - -
28/11:00pm 25.2 SSE 14 18 1014.1 - 4.8 - - - - - - -
28/10:30pm 25.1 SSE 13 18 1014.4 - 4.8 - - - - - - -
28/10:00pm 25.0 SSE 13 17 1014.5 - 4.8 - - - - - - -
28/09:30pm 24.7 SSE 15 19 1014.2 - 4.8 - - - - - - -
28/09:00pm 24.4 SSE 12 15 1013.9 - 4.8 Recent precip. - - - - - -
28/08:30pm 24.1 SE 14 18 1014.1 - 4.4 - - - - - - -
28/08:00pm 24.3 SE 13 17 1013.8 - 3.2 - - - - - - -
28/07:37pm 24.8 SE 16 26 1013.2 - 2.4 - - - - - - -
28/07:30pm 25.6 SSE 17 23 1013.2 - 1.2 - - - - - - -
28/07:00pm 25.5 SSE 18 25 1012.6 - 1.2 - - - - - - -
28/06:30pm 25.2 SE 15 20 1012.3 - 1.2 - - - - - - -
28/06:00pm 25.4 SSE 13 17 1012.1 - 1.0 Recent precip. - - - - - -
28/05:30pm 25.5 SSE 17 25 1011.9 - 0.8 - - - - - - -
28/05:00pm 25.9 SE 17 25 1011.7 - 0.6 - - - - - - -
28/04:30pm 26.1 SE 16 23 1011.5 - 0.6 - - - - - - -
28/04:00pm 25.5 SE 12 19 1011.3 - 0.6 - - - - - - -
28/03:30pm 27.8 SSE 18 23 1011.1 - 0.4 - - - - - - -
28/03:00pm 27.1 SE 16 22 1011.2 - 0.4 - - - - - - -
28/02:30pm 28.4 SE 17 23 1011.2 - 0.4 - - - - - - -
28/02:00pm 27.3 SE 15 19 1011.4 - 0.4 - - - - - - -
28/01:30pm 25.9 ESE 18 30 1011.9 - 0.4 - - - - - - -
28/01:21pm 27.2 SE 18 30 1011.9 - 0.0 - - - - - - -
28/01:00pm 28.3 SE 17 23 1012.1 - 0.0 - - - - - - -
28/12:30pm 28.2 SE 19 27 1012.3 - 0.0 - - - - - - -
28/12:08pm 27.3 SE 16 32 1012.3 - 0.0 - - - - - - -
28/12:00pm 28.3 SE 16 21 1012.5 - 0.0 - - - - - - -
28/11:30am 28.3 SE 20 26 1012.9 - 0.0 - - - - - - -
28/11:19am 28.5 SE 17 27 1013.1 - 0.0 - - - - - - -
28/11:00am 28.7 SE 17 22 1013.2 - 0.0 - - - - - - -
28/10:30am 27.7 SE 20 27 1013.6 - 0.0 - - - - - - -
28/10:00am 27.4 SE 18 24 1013.6 - 0.0 - - - - - - -
28/09:30am 27.5 SE 19 27 1013.3 - 0.0 - - - - - - -
28/09:00am 27.3 SE 18 26 1013.1 - 0.0 - - - - - - -
28/08:30am 26.9 SE 18 22 1012.7 - 0.0 - - - - - - -
28/08:00am 26.8 SE 18 24 1012.4 - 0.0 - - - - - - -
28/07:30am 26.0 SE 17 23 1012.2 - 0.0 - - - - - - -
28/07:08am 25.5 SE 17 27 1011.9 - 0.0 - - - - - - -
28/07:00am 25.4 SE 18 27 1011.9 - 0.0 - - - - - - -
28/06:30am 25.6 SE 19 29 1011.5 - 0.0 - - - - - - -
28/06:21am 26.5 SE 19 29 1011.3 - 0.0 - - - - - - -
28/06:00am 26.7 SE 19 26 1010.9 - 0.0 - - - - - - -
28/05:30am 26.7 SE 19 26 1010.7 - 0.0 - - - - - - -
28/05:00am 26.7 SE 18 26 1010.6 - 0.0 - - - - - - -
28/04:30am 26.7 SE 19 25 1010.7 - 0.0 - - - - - - -
28/04:00am 26.6 SE 17 25 1010.7 - 0.0 - - - - - - -
28/03:30am 26.3 SE 16 22 1010.8 - 0.0 - - - - - - -
28/03:00am 26.4 SE 17 23 1010.7 - 0.0 - - - - - - -
28/02:30am 26.4 SE 17 23 1010.9 - 0.0 - - - - - - -
28/02:00am 26.5 SE 16 23 1011.2 - 0.0 - - - - - - -
28/01:30am 26.5 SE 16 23 1011.5 - 0.0 - - - - - - -
28/01:00am 26.5 SE 15 20 1011.8 - 0.0 - - - - - - -
28/12:30am 26.6 SE 15 21 1012.1 - 0.0 - - - - - - -
28/12:00am 26.7 SE 15 21 1012.4 - 0.0 - - - - - - -
 
Date/Time
EST
Temp

°C
Wind Pressure Rain
since 9am
mm
Weather Cloud Vis
km
Sea
Height
m
Swell
Dir
 
Speed
knots
Gust
knots
hPa Trend Height
m
Period
s
Dir
27/11:30pm 26.6 SE 15 19 1012.5 - 0.0 - - - - - - -
27/11:00pm 26.9 SE 17 23 1012.8 - 0.0 - - - - - - -
27/10:30pm 26.8 SE 16 21 1012.8 - 0.0 - - - - - - -
27/10:00pm 26.7 SE 16 22 1012.9 - 0.0 - - - - - - -
27/09:30pm 26.8 SE 17 24 1012.9 - 0.0 - - - - - - -
27/09:00pm 27.0 SE 17 25 1012.7 - 0.0 - - - - - - -
27/08:30pm 26.8 SE 17 24 1012.4 - 0.0 - - - - - - -
27/08:00pm 26.9 SE 16 21 1012.2 - 0.0 - - - - - - -
27/07:30pm 27.0 SE 17 23 1011.9 - 0.0 - - - - - - -
27/07:00pm 26.9 SE 16 21 1011.6 - 0.0 - - - - - - -
27/06:30pm 27.0 SE 15 21 1011.3 - 0.0 - - - - - - -
27/06:00pm 27.1 SE 17 23 1011.1 - 0.0 - - - - - - -
27/05:30pm 27.3 SE 15 20 1010.9 - 0.0 - - - - - - -
27/05:00pm 27.4 SSE 17 22 1010.7 - 0.0 - - - - - - -
27/04:30pm 28.0 SSE 17 22 1010.6 - 0.0 - - - - - - -
27/04:00pm 27.8 SE 15 22 1010.5 - 0.0 - - - - - - -
27/03:30pm 28.1 SE 17 24 1010.5 - 0.0 - - - - - - -
27/03:00pm 29.2 SE 17 23 1010.5 - 0.0 - - - - - - -
27/02:30pm 29.6 SE 18 23 1010.6 - 0.0 - - - - - - -
27/02:00pm 29.0 SE 17 22 1010.9 - 0.0 - - - - - - -
27/01:30pm 29.3 SE 16 22 1011.3 - 0.0 - - - - - - -
27/01:00pm 28.7 SE 17 22 1011.7 - 0.0 - - - - - - -
27/12:30pm 28.7 SE 17 24 1011.9 - 0.0 - - - - - - -
27/12:00pm 29.1 SE 17 23 1012.3 - 0.0 - - - - - - -
27/11:30am 28.6 SE 18 24 1012.6 - 0.0 - - - - - - -
27/11:00am 28.7 SE 19 24 1013.0 - 0.0 - - - - - - -
27/10:30am 28.6 SE 16 24 1013.4 - 0.0 - - - - - - -
27/10:00am 28.6 SE 17 22 1013.6 - 0.0 - - - - - - -
27/09:41am 27.4 SE 20 32 1013.8 - 0.0 - - - - - - -
27/09:30am 29.2 SE 19 27 1013.6 - 0.0 - - - - - - -
27/09:00am 28.4 SE 19 27 1013.4 - 0.4 - - - - - - -
27/08:30am 28.0 SE 17 24 1012.8 - 0.4 - - - - - - -
27/08:00am 27.5 SE 18 23 1012.6 - 0.4 - - - - - - -
27/07:30am 26.9 SE 18 25 1012.4 - 0.4 - - - - - - -
27/07:00am 26.0 SE 16 23 1012.0 - 0.4 - - - - - - -
27/06:30am 26.4 SE 19 26 1011.7 - 0.4 - - - - - - -
27/06:00am 26.6 SE 19 26 1011.2 - 0.4 - - - - - - -
27/05:30am 26.6 SE 21 27 1011.0 - 0.4 - - - - - - -
27/05:00am 26.5 SE 21 29 1010.9 - 0.4 - - - - - - -
27/04:30am 26.6 SE 21 28 1010.8 - 0.4 - - - - - - -
27/04:00am 26.4 SE 21 28 1010.7 - 0.4 - - - - - - -
27/03:30am 26.0 SE 20 28 1010.6 - 0.4 - - - - - - -
27/03:00am 25.5 SE 18 27 1010.9 - 0.4 Recent precip. - - - - - -
27/02:30am 24.9 SE 18 27 1011.1 - 0.4 - - - - - - -
27/02:04am 25.1 SSE 19 29 1011.4 - 0.2 - - - - - - -
27/02:00am 25.4 SE 20 29 1011.4 - 0.2 - - - - - - -
27/01:55am 26.3 SE 19 29 1011.4 - 0.2 - - - - - - -
27/01:30am 26.6 SE 17 23 1011.5 - 0.2 - - - - - - -
27/01:03am 26.8 SE 19 30 1011.8 - 0.2 - - - - - - -
27/01:00am 26.8 SE 19 26 1011.8 - 0.2 - - - - - - -
27/12:30am 26.8 SE 19 25 1012.0 - 0.2 - - - - - - -
27/12:18am 26.8 SE 19 29 1012.1 - 0.2 - - - - - - -
27/12:00am 26.8 SE 21 28 1012.2 - 0.2 - - - - - - -
 
Date/Time
EST
Temp

°C
Wind Pressure Rain
since 9am
mm
Weather Cloud Vis
km
Sea
Height
m
Swell
Dir
 
Speed
knots
Gust
knots
hPa Trend Height
m
Period
s
Dir
26/11:47pm 26.8 SE 19 29 1012.2 - 0.2 - - - - - - -
26/11:30pm 26.9 SE 22 29 1012.2 - 0.2 - - - - - - -
26/11:00pm 27.0 SE 21 27 1012.5 - 0.2 - - - - - - -
26/10:30pm 26.9 SE 20 29 1012.7 - 0.2 - - - - - - -
26/10:07pm 25.1 SE 22 32 1012.8 - 0.2 - - - - - - -
26/10:00pm 26.7 SE 23 32 1012.9 - 0.2 - - - - - - -
26/09:59pm 27.0 SE 22 32 1012.9 - 0.2 - - - - - - -
26/09:30pm 26.7 SE 20 27 1013.1 - 0.2 - - - - - - -
26/09:00pm 26.7 SE 22 32 1013.2 - 0.2 - - - - - - -
26/08:56pm 27.0 SE 20 30 1013.1 - 0.2 - - - - - - -
26/08:30pm 26.7 SE 20 25 1013.1 - 0.2 - - - - - - -
26/08:05pm 27.0 SE 19 29 1013.0 - 0.2 - - - - - - -
26/08:00pm 27.0 SE 18 27 1013.0 - 0.2 - - - - - - -
26/07:30pm 26.3 SE 18 26 1012.7 - 0.2 - - - - - - -
26/07:15pm 25.2 SE 19 29 1012.7 - 0.2 - - - - - - -
26/07:00pm 27.1 SE 21 28 1012.5 - 0.2 - - - - - - -
26/06:42pm 27.0 SE 19 29 1012.4 - 0.2 - - - - - - -
26/06:30pm 27.1 SE 21 27 1012.4 - 0.2 - - - - - - -
26/06:00pm 27.1 SE 20 26 1012.3 - 0.2 - - - - - - -
26/05:30pm 27.0 SE 20 27 1012.1 - 0.2 - - - - - - -
26/05:00pm 26.8 SE 19 25 1011.9 - 0.2 - - - - - - -
26/04:38pm 26.8 SE 17 27 1011.8 - 0.2 - - - - - - -
26/04:30pm 26.9 SE 18 26 1011.7 - 0.2 - - - - - - -
26/04:16pm 26.8 SE 18 28 1011.6 - 0.2 - - - - - - -
26/04:00pm 26.8 SE 19 26 1011.6 - 0.2 - - - - - - -
26/03:30pm 27.4 SE 17 23 1011.6 - 0.2 - - - - - - -
26/03:00pm 27.4 SE 18 24 1011.5 - 0.2 - - - - - - -
26/02:30pm 27.3 SE 18 27 1011.6 - 0.2 - - - - - - -
26/02:00pm 27.5 SE 18 26 1011.8 - 0.2 - - - - - - -
26/01:45pm 27.9 SE 18 28 1011.9 - 0.2 - - - - - - -
26/01:30pm 28.0 SE 17 25 1012.0 - 0.2 - - - - - - -
26/01:00pm 28.3 SE 18 26 1012.3 - 0.2 - - - - - - -
26/12:30pm 27.4 ESE 19 27 1012.9 - 0.2 - - - - - - -
26/12:19pm 27.8 SE 19 30 1013.2 - 0.2 - - - - - - -
26/12:00pm 28.2 SE 17 24 1013.3 - 0.2 - - - - - - -

Other Formats:

Comma delimited format used in spreadsheet applications
http://www.bom.gov.au/fwo/IDQ60701/IDQ60701.94188.axf

JavaScript Object Notation format (JSON) in row-major order
http://www.bom.gov.au/fwo/IDQ60701/IDQ60701.94188.json